Main page
METAR-TAF:

METAR-TAF

Airports :

Larissa, Greece

latitude: 39-38N, longitude: 022-25E, elevation: 73 m

METAR: missing

Time: 05:45 (02:45 UTC)

Forecast

The report was made 45 minutes ago, at 02:00 UTC
Forecast valid from 18 at 03 UTC to 18 at 12 UTC
Wind 10 kt from the Northwest
Visibility 10 km or more
Few clouds at a height of 2500 ft
Becoming
from 18 at 07 UTC to 18 at 09 UTC
Wind 12 kt from the Northeast
Temporary
from 18 at 10 UTC to 18 at 12 UTC
Wind 12 kt from the Northeast with gusts up to 22 kt

TAF: LGLR 180200Z 1803/1812 32010KT 9999 FEW025 BECMG 1807/1809 05012KT TEMPO 1810/1812 05012G22KT

Weather observations and forecasts of more than 4000 airports (METAR and TAF reports).

The available stations are represented by yellow and red dots on the map.

Hover mouse over dot to see the name of the station.

Then click to see weather observations and forecasts.

To change the map : click on the green buttons with a black cross to zoom in, on the green button with a dash to zoom out, or on the green arrows for adjacent maps.


METAR-TAF: